• Join FlightAware (Why Join?)
  • Login
  • US Flag 
05:58AM EDT


 

Airport Tracker/Info


-or-


 

Live Flight TrackerFlight Track Log ✈ SWA2336 ✈ 20-Apr-2013 ✈ KLAS - KSAN

Flight Track Log - Related Links

Times and Time Zones

All times are in EDT time to prevent confusion due to time zone crossing. See the SWA2336 flight status page for this flight to view local times or setup timezone preferences in your user account.

Time Position Orientation Groundspeed Altitude Reporting Facility
EDT Latitude Longitude Course Direction KTS MPH feet Rate Location/Type
06:09PM 36.0767 -115.1014 89° East 162 186 3,700  Level Los Angeles Center
06:10PM 36.0769 -115.0136 90° East 271 312 6,300 2,280 Climbing Los Angeles Center
06:11PM 36.0764 -114.9947 92° East 252 290 6,700 1,500 Climbing Los Angeles Center
06:11PM 36.0369 -114.9392 131° Southeast 294 338 7,800 1,620 Climbing Los Angeles Center
06:12PM 36.0256 -114.9344 161° South 278 320 8,400 2,880 Climbing Los Angeles Center
06:13PM 35.9481 -114.9608 195° South 284 327 11,700 2,820 Climbing Los Angeles Center
06:14PM 35.8500 -114.9914 194° South 335 386 14,300 3,420 Climbing Los Angeles Center
06:15PM 35.7236 -115.0308 194° South 381 438 18,800 3,480 Climbing Los Angeles Center
06:16PM 35.5964 -115.0825 198° South 394 453 22,300 2,820 Climbing Los Angeles Center
06:17PM 35.4861 -115.1306 200° South 411 473 25,300 2,460 Climbing Los Angeles Center
06:18PM 35.3547 -115.1850 199° South 413 475 28,000 1,140 Climbing Los Angeles Center
06:19PM 35.2472 -115.2300 199° South 409 471 28,000  Level Los Angeles Center
06:20PM 35.1367 -115.2778 199° South 407 468 28,000  Level Los Angeles Center
06:21PM 35.0289 -115.3225 199° South 408 470 28,000  Level Los Angeles Center
06:22PM 34.9178 -115.3678 198° South 421 484 28,000  Level Los Angeles Center
06:23PM 34.7794 -115.4275 200° South 435 501 28,000  Level Los Angeles Center
06:24PM 34.6656 -115.4739 199° South 433 498 28,000  Level Los Angeles Center
06:25PM 34.5461 -115.5236 199° South 435 501 28,000  Level Los Angeles Center
06:27PM 34.4322 -115.5689 198° South 436 502 28,000  Level Los Angeles Center
06:28PM 34.3167 -115.6175 199° South 436 502 28,000  Level Los Angeles Center
06:29PM 34.2011 -115.6650 199° South 437 503 28,000  Level Los Angeles Center
06:30PM 34.0850 -115.7111 198° South 439 505 28,000  Level Los Angeles Center
06:31PM 33.9708 -115.7589 199° South 436 502 28,000  Level Los Angeles Center
06:32PM 33.8336 -115.8144 199° South 434 499 28,000 -60 Level Los Angeles Center
06:33PM 33.7194 -115.8608 199° South 433 498 27,900 -1,080 Descending Los Angeles Center
06:34PM 33.6069 -115.9067 199° South 429 494 25,800 -1,920 Descending Los Angeles Center
06:35PM 33.5075 -115.9639 206° Southwest 414 476 24,000 -1,320 Descending Los Angeles Center
06:36PM 33.4372 -116.0569 228° Southwest 381 438 23,100 -1,560 Descending Los Angeles Center
06:37PM 33.3503 -116.1339 216° Southwest 387 445 20,800 -2,400 Descending Los Angeles Center
06:38PM 33.2517 -116.2236 217° Southwest 377 434 18,200 -2,280 Descending Los Angeles Center
06:39PM 33.1711 -116.2956 217° Southwest 366 421 16,100 -2,040 Descending Los Angeles Center
06:40PM 33.0925 -116.3658 217° Southwest 358 412 14,000 -2,040 Descending Los Angeles Center
06:41PM 33.0133 -116.4361 217° Southwest 351 404 12,000 -1,140 Descending Los Angeles Center
06:42PM 32.9325 -116.4867 208° Southwest 329 379 11,700 -1,080 Descending Los Angeles Center
06:43PM 32.8614 -116.5592 221° Southwest 309 356 9,900 -1,620 Descending Los Angeles Center
06:44PM 32.8200 -116.6419 239° Southwest 296 341 8,400 -1,500 Descending Los Angeles Center
06:45PM 32.7781 -116.7242 239° Southwest 292 336 6,900 -1,320 Descending Los Angeles Center
06:46PM 32.7372 -116.8058 239° Southwest 290 334 5,700 -960 Descending Los Angeles Center
06:47PM 32.6833 -116.9000 236° Southwest 257 296 4,900 -780 Descending Southern California TRACON
06:48PM 32.6833 -116.9667 270° West 234 269 4,100 -720 Descending Southern California TRACON
06:49PM 32.7000 -117.0333 287° West 196 226 3,500 -780 Descending Southern California TRACON
06:50PM 32.7167 -117.1000 287° West 172 198 2,600 -1,200 Descending Southern California TRACON
06:51PM 32.7167 -117.1500 270° West 146 168 1,200 -1,440 Descending Southern California TRACON
06:54PM 32.7333 -117.1833 281° West  Level FlightAware Approximate
07:01PM 32.7336 -117.1897 281° West  Level Estimated